createdAt,value
2018-12-07T00:01:24.293Z,1007.62
2018-12-07T00:02:21.584Z,1007.60
2018-12-07T00:03:22.145Z,1007.51
2018-12-07T00:04:21.597Z,1007.49
2018-12-07T00:05:21.592Z,1007.51
2018-12-07T00:06:21.596Z,1007.47
2018-12-07T00:07:22.384Z,1007.50
2018-12-07T00:08:21.609Z,1007.54
2018-12-07T00:09:21.627Z,1007.53
2018-12-07T00:10:21.486Z,1007.52
2018-12-07T00:11:21.375Z,1007.50
2018-12-07T00:12:21.991Z,1007.48
2018-12-07T00:13:21.495Z,1007.43
2018-12-07T00:14:21.402Z,1007.42
2018-12-07T00:15:22.357Z,1007.43
2018-12-07T00:18:05.921Z,1007.42
2018-12-07T00:19:04.613Z,1007.42
2018-12-07T00:20:04.649Z,1007.42
2018-12-07T00:21:04.656Z,1007.46
2018-12-07T00:22:04.626Z,1007.43
2018-12-07T00:23:04.803Z,1007.41
2018-12-07T00:24:04.615Z,1007.41
2018-12-07T00:25:05.309Z,1007.39
2018-12-07T00:26:05.567Z,1007.43
2018-12-07T00:27:04.690Z,1007.42
2018-12-07T00:28:04.615Z,1007.41
2018-12-07T00:29:04.620Z,1007.37
2018-12-07T00:30:04.519Z,1007.30
2018-12-07T00:32:41.036Z,1007.23
2018-12-07T00:33:39.644Z,1007.21
2018-12-07T00:34:39.660Z,1007.19
2018-12-07T00:35:40.929Z,1007.19
2018-12-07T00:36:39.620Z,1007.11
2018-12-07T00:37:39.492Z,1007.15
2018-12-07T00:38:39.629Z,1007.12
2018-12-07T00:39:39.607Z,1007.06
2018-12-07T00:40:39.612Z,1007.08
2018-12-07T00:41:39.662Z,1007.12
2018-12-07T00:42:39.719Z,1007.04
2018-12-07T00:43:39.540Z,1007.06
2018-12-07T00:44:39.438Z,1007.09
2018-12-07T00:45:39.630Z,1007.02
2018-12-07T00:47:53.317Z,1007.15
2018-12-07T00:48:51.658Z,1007.18
2018-12-07T00:49:51.579Z,1007.18
2018-12-07T00:50:52.171Z,1007.17
2018-12-07T00:51:52.044Z,1007.20
2018-12-07T00:52:51.796Z,1007.23
2018-12-07T00:53:51.493Z,1007.18
2018-12-07T00:54:51.666Z,1007.16
2018-12-07T00:55:51.645Z,1007.14
2018-12-07T00:56:51.506Z,1007.10
2018-12-07T00:57:53.907Z,1007.05
2018-12-07T00:58:51.690Z,1007.05
2018-12-07T00:59:51.529Z,1007.05
2018-12-07T01:00:51.484Z,1007.00
2018-12-07T01:03:12.746Z,1006.93
2018-12-07T01:04:13.588Z,1006.94
2018-12-07T01:05:12.556Z,1006.84
2018-12-07T01:06:12.704Z,1006.91
2018-12-07T01:07:12.672Z,1006.75
2018-12-07T01:08:12.742Z,1006.81
2018-12-07T01:09:14.357Z,1006.70
2018-12-07T01:10:12.677Z,1006.73
2018-12-07T01:11:12.694Z,1006.74
2018-12-07T01:12:12.539Z,1006.69
2018-12-07T01:13:12.676Z,1006.74
2018-12-07T01:14:12.728Z,1006.74
2018-12-07T01:15:12.744Z,1006.78
2018-12-07T01:16:12.450Z,1006.76
2018-12-07T01:17:13.324Z,1006.73
2018-12-07T01:19:59.343Z,1006.73
2018-12-07T01:20:57.232Z,1006.79
2018-12-07T01:21:57.119Z,1006.72
2018-12-07T01:22:57.424Z,1006.73
2018-12-07T01:23:58.425Z,1006.72
2018-12-07T01:24:57.255Z,1006.73
2018-12-07T01:25:57.357Z,1006.72
2018-12-07T01:26:56.888Z,1006.68
2018-12-07T01:27:57.578Z,1006.68
2018-12-07T01:28:57.691Z,1006.70
2018-12-07T01:29:58.525Z,1006.69
2018-12-07T01:30:57.375Z,1006.72
2018-12-07T01:31:59.614Z,1006.70
2018-12-07T01:34:18.700Z,1006.73
2018-12-07T01:35:17.691Z,1006.68
2018-12-07T01:36:17.800Z,1006.70
2018-12-07T01:37:19.354Z,1006.71
2018-12-07T01:38:17.795Z,1006.69
2018-12-07T01:39:17.857Z,1006.73
2018-12-07T01:40:17.692Z,1006.68
2018-12-07T01:41:18.360Z,1006.69
2018-12-07T01:42:17.645Z,1006.64
2018-12-07T01:43:17.772Z,1006.70
2018-12-07T01:44:17.700Z,1006.66
2018-12-07T01:45:17.703Z,1006.66
2018-12-07T01:46:17.713Z,1006.64
2018-12-07T01:47:17.714Z,1006.66
2018-12-07T01:48:17.716Z,1006.67
2018-12-07T01:50:29.322Z,1006.61
2018-12-07T01:51:28.156Z,1006.63
2018-12-07T01:52:28.191Z,1006.57
2018-12-07T01:53:27.867Z,1006.57
2018-12-07T01:54:28.184Z,1006.55
2018-12-07T01:55:28.083Z,1006.52
2018-12-07T01:56:28.847Z,1006.53
2018-12-07T01:57:27.854Z,1006.50
2018-12-07T01:58:28.165Z,1006.49
2018-12-07T01:59:28.696Z,1006.54
2018-12-07T02:00:28.258Z,1006.46
2018-12-07T02:01:29.609Z,1006.45
2018-12-07T02:02:28.058Z,1006.48
2018-12-07T02:03:27.779Z,1006.46
2018-12-07T02:05:45.914Z,1006.37
2018-12-07T02:06:42.866Z,1006.34
2018-12-07T02:07:38.897Z,1006.29
2018-12-07T02:08:38.819Z,1006.27
2018-12-07T02:09:38.751Z,1006.25
2018-12-07T02:10:38.642Z,1006.25
2018-12-07T02:11:39.755Z,1006.22
2018-12-07T02:12:41.007Z,1006.22
2018-12-07T02:13:39.587Z,1006.25
2018-12-07T02:14:38.719Z,1006.19
2018-12-07T02:15:38.723Z,1006.20
2018-12-07T02:16:38.704Z,1006.16
2018-12-07T02:17:38.621Z,1006.16
2018-12-07T02:18:39.759Z,1006.08
2018-12-07T02:19:38.732Z,1006.12
2018-12-07T02:21:50.804Z,1006.08
2018-12-07T02:22:50.109Z,1006.13
2018-12-07T02:23:50.367Z,1006.08
2018-12-07T02:24:50.222Z,1006.07
2018-12-07T02:25:49.799Z,1006.02
2018-12-07T02:26:49.839Z,1006.02
2018-12-07T02:27:49.782Z,1005.98
2018-12-07T02:28:49.764Z,1006.00
2018-12-07T02:29:50.745Z,1005.99
2018-12-07T02:30:49.749Z,1006.01
2018-12-07T02:31:49.775Z,1005.98
2018-12-07T02:32:49.760Z,1005.95
2018-12-07T02:33:49.743Z,1005.94
2018-12-07T02:34:49.755Z,1005.94
2018-12-07T02:37:05.680Z,1005.96
2018-12-07T02:38:01.449Z,1005.94
2018-12-07T02:39:01.751Z,1005.92
2018-12-07T02:40:01.451Z,1005.89
2018-12-07T02:41:02.592Z,1005.88
2018-12-07T02:42:01.362Z,1005.90
2018-12-07T02:43:01.409Z,1005.88
2018-12-07T02:44:01.756Z,1005.88
2018-12-07T02:45:01.253Z,1005.85
2018-12-07T02:46:01.415Z,1005.85
2018-12-07T02:47:02.271Z,1005.86
2018-12-07T02:48:01.479Z,1005.79
2018-12-07T02:49:01.265Z,1005.76
2018-12-07T02:50:01.006Z,1005.75
2018-12-07T02:52:12.798Z,1005.74
2018-12-07T02:53:11.770Z,1005.71
2018-12-07T02:54:11.727Z,1005.67
2018-12-07T02:55:11.820Z,1005.70
2018-12-07T02:56:11.546Z,1005.67
2018-12-07T02:57:11.767Z,1005.65
2018-12-07T02:58:11.847Z,1005.68
2018-12-07T02:59:11.570Z,1005.62
2018-12-07T03:00:11.470Z,1005.60
2018-12-07T03:01:11.686Z,1005.65
2018-12-07T03:02:11.581Z,1005.56
2018-12-07T03:03:11.483Z,1005.60
2018-12-07T03:04:11.787Z,1005.57
2018-12-07T03:05:11.799Z,1005.56
2018-12-07T03:06:11.800Z,1005.54
2018-12-07T03:08:21.909Z,1005.52
2018-12-07T03:09:21.862Z,1005.53
2018-12-07T03:10:21.791Z,1005.50
2018-12-07T03:11:22.092Z,1005.46
2018-12-07T03:12:21.681Z,1005.51
2018-12-07T03:13:21.814Z,1005.50
2018-12-07T03:14:22.878Z,1005.48
2018-12-07T03:15:21.756Z,1005.42
2018-12-07T03:16:21.800Z,1005.37
2018-12-07T03:17:21.814Z,1005.42
2018-12-07T03:18:21.919Z,1005.39
2018-12-07T03:19:21.652Z,1005.35
2018-12-07T03:20:21.842Z,1005.31
2018-12-07T03:21:21.877Z,1005.33
2018-12-07T03:23:34.408Z,1005.32
2018-12-07T03:24:32.219Z,1005.35
2018-12-07T03:25:32.821Z,1005.32
2018-12-07T03:26:31.959Z,1005.25
2018-12-07T03:27:33.856Z,1005.25
2018-12-07T03:28:32.449Z,1005.23
2018-12-07T03:29:32.693Z,1005.27
2018-12-07T03:30:31.900Z,1005.21
2018-12-07T03:31:32.085Z,1005.24
2018-12-07T03:32:31.875Z,1005.22
2018-12-07T03:33:31.872Z,1005.20
2018-12-07T03:34:31.887Z,1005.21
2018-12-07T03:35:32.814Z,1005.20
2018-12-07T03:36:32.115Z,1005.19
2018-12-07T03:37:31.826Z,1005.17
2018-12-07T03:39:48.377Z,1005.22
2018-12-07T03:40:43.257Z,1005.16
2018-12-07T03:41:42.589Z,1005.20
2018-12-07T03:42:42.811Z,1005.17
2018-12-07T03:43:42.724Z,1005.21
2018-12-07T03:44:42.614Z,1005.15
2018-12-07T03:45:42.852Z,1005.19
2018-12-07T03:46:42.833Z,1005.19
2018-12-07T03:47:42.665Z,1005.18
2018-12-07T03:48:42.555Z,1005.19
2018-12-07T03:49:42.852Z,1005.17
2018-12-07T03:50:42.983Z,1005.12
2018-12-07T03:51:42.575Z,1005.11
2018-12-07T03:52:42.832Z,1005.14
2018-12-07T03:53:42.846Z,1005.05
2018-12-07T03:55:54.880Z,1005.10
2018-12-07T03:56:53.765Z,1005.09
2018-12-07T03:57:53.254Z,1004.99
2018-12-07T03:58:53.765Z,1005.02
2018-12-07T03:59:53.469Z,1005.01
2018-12-07T04:00:53.826Z,1005.02
2018-12-07T04:01:53.866Z,1004.98
2018-12-07T04:02:53.543Z,1005.00
2018-12-07T04:03:53.631Z,1004.96
2018-12-07T04:04:53.307Z,1004.97
2018-12-07T04:05:53.517Z,1004.91
2018-12-07T04:06:53.423Z,1004.98
2018-12-07T04:07:53.894Z,1004.93
2018-12-07T04:08:53.250Z,1005.00
2018-12-07T04:11:27.025Z,1004.97
2018-12-07T04:12:25.242Z,1004.99
2018-12-07T04:13:26.729Z,1004.96
2018-12-07T04:14:24.981Z,1004.89
2018-12-07T04:15:24.984Z,1004.90
2018-12-07T04:16:24.891Z,1004.89
2018-12-07T04:17:24.893Z,1004.82
2018-12-07T04:18:24.889Z,1004.85
2018-12-07T04:19:25.766Z,1004.88
2018-12-07T04:20:25.938Z,1004.88
2018-12-07T04:21:24.859Z,1004.84
2018-12-07T04:22:26.142Z,1004.81
2018-12-07T04:23:24.879Z,1004.79
2018-12-07T04:24:24.992Z,1004.79
2018-12-07T04:26:38.468Z,1004.76
2018-12-07T04:27:36.681Z,1004.78
2018-12-07T04:28:36.985Z,1004.77
2018-12-07T04:29:36.893Z,1004.74
2018-12-07T04:30:36.720Z,1004.82
2018-12-07T04:31:36.609Z,1004.77
2018-12-07T04:32:36.867Z,1004.80
2018-12-07T04:33:36.722Z,1004.82
2018-12-07T04:34:36.659Z,1004.79
2018-12-07T04:35:36.988Z,1004.78
2018-12-07T04:36:36.775Z,1004.77
2018-12-07T04:37:36.886Z,1004.81
2018-12-07T04:38:36.919Z,1004.75
2018-12-07T04:39:37.515Z,1004.77
2018-12-07T04:40:36.695Z,1004.78
2018-12-07T04:42:48.906Z,1004.79
2018-12-07T04:43:47.989Z,1004.82
2018-12-07T04:44:47.909Z,1004.81
2018-12-07T04:45:48.028Z,1004.77
2018-12-07T04:46:48.393Z,1004.77
2018-12-07T04:47:47.892Z,1004.79
2018-12-07T04:48:47.906Z,1004.77
2018-12-07T04:49:47.814Z,1004.82
2018-12-07T04:50:47.885Z,1004.79
2018-12-07T04:51:48.849Z,1004.77
2018-12-07T04:52:48.083Z,1004.75
2018-12-07T04:53:47.887Z,1004.75
2018-12-07T04:54:48.151Z,1004.75
2018-12-07T04:55:47.894Z,1004.77
2018-12-07T04:57:58.953Z,1004.77
2018-12-07T04:58:59.913Z,1004.71
2018-12-07T04:59:59.514Z,1004.69
2018-12-07T05:00:58.775Z,1004.70
2018-12-07T05:01:58.892Z,1004.63
2018-12-07T05:02:59.865Z,1004.67
2018-12-07T05:03:58.967Z,1004.60
2018-12-07T05:04:58.690Z,1004.58
2018-12-07T05:05:58.890Z,1004.55
2018-12-07T05:07:02.258Z,1004.53
2018-12-07T05:07:58.701Z,1004.55
2018-12-07T05:08:58.604Z,1004.55
2018-12-07T05:09:58.899Z,1004.54
2018-12-07T05:10:58.795Z,1004.53
2018-12-07T05:11:58.649Z,1004.55
2018-12-07T05:14:13.923Z,1004.53
2018-12-07T05:15:13.920Z,1004.52
2018-12-07T05:16:13.933Z,1004.54
2018-12-07T05:17:13.807Z,1004.58
2018-12-07T05:18:13.706Z,1004.56
2018-12-07T05:19:14.058Z,1004.56
2018-12-07T05:20:14.083Z,1004.58
2018-12-07T05:21:13.749Z,1004.60
2018-12-07T05:22:13.915Z,1004.56
2018-12-07T05:23:15.023Z,1004.56
2018-12-07T05:24:13.763Z,1004.59
2018-12-07T05:25:13.594Z,1004.52
2018-12-07T05:26:13.825Z,1004.55
2018-12-07T05:27:13.930Z,1004.53
2018-12-07T05:29:26.534Z,1004.54
2018-12-07T05:30:24.924Z,1004.56
2018-12-07T05:31:24.935Z,1004.57
2018-12-07T05:32:24.679Z,1004.55
2018-12-07T05:33:24.893Z,1004.51
2018-12-07T05:34:24.814Z,1004.50
2018-12-07T05:35:26.359Z,1004.48
2018-12-07T05:36:25.965Z,1004.47
2018-12-07T05:37:26.072Z,1004.46
2018-12-07T05:38:24.891Z,1004.51
2018-12-07T05:39:28.314Z,1004.48
2018-12-07T05:40:24.548Z,1004.43
2018-12-07T05:41:24.951Z,1004.43
2018-12-07T05:42:25.495Z,1004.51
2018-12-07T05:43:31.804Z,1004.45
2018-12-07T05:44:27.550Z,1004.43
2018-12-07T05:46:38.981Z,1004.42
2018-12-07T05:47:37.951Z,1004.49
2018-12-07T05:48:37.970Z,1004.49
2018-12-07T05:49:43.919Z,1004.51
2018-12-07T05:50:37.711Z,1004.54
2018-12-07T05:51:37.964Z,1004.56
2018-12-07T05:52:40.012Z,1004.53
2018-12-07T05:53:38.669Z,1004.53
2018-12-07T05:54:37.961Z,1004.50
2018-12-07T05:55:40.055Z,1004.46
2018-12-07T05:56:37.761Z,1004.45
2018-12-07T05:57:37.670Z,1004.41
2018-12-07T05:58:38.236Z,1004.42
2018-12-07T05:59:38.393Z,1004.44
2018-12-07T06:00:37.694Z,1004.46
2018-12-07T06:02:50.386Z,1004.40
2018-12-07T06:03:49.816Z,1004.42
2018-12-07T06:04:50.044Z,1004.43
2018-12-07T06:05:50.011Z,1004.45
2018-12-07T06:06:50.021Z,1004.44
2018-12-07T06:07:53.765Z,1004.45
2018-12-07T06:08:50.524Z,1004.40
2018-12-07T06:09:49.524Z,1004.41
2018-12-07T06:10:49.972Z,1004.38
2018-12-07T06:11:49.557Z,1004.37
2018-12-07T06:12:49.448Z,1004.32
2018-12-07T06:13:49.714Z,1004.29
2018-12-07T06:14:49.560Z,1004.28
2018-12-07T06:15:49.984Z,1004.36
2018-12-07T06:18:48.226Z,1004.38
2018-12-07T06:19:47.861Z,1004.39
2018-12-07T06:20:47.761Z,1004.40
2018-12-07T06:21:56.260Z,1004.37
2018-12-07T06:22:48.085Z,1004.43
2018-12-07T06:23:47.994Z,1004.41
2018-12-07T06:24:47.987Z,1004.34
2018-12-07T06:25:47.892Z,1004.42
2018-12-07T06:26:48.308Z,1004.37
2018-12-07T06:27:47.705Z,1004.35
2018-12-07T06:28:48.137Z,1004.34
2018-12-07T06:29:48.037Z,1004.28
2018-12-07T06:30:47.759Z,1004.26
2018-12-07T06:31:48.003Z,1004.28
2018-12-07T06:34:08.045Z,1004.25
2018-12-07T06:35:06.727Z,1004.26
2018-12-07T06:36:07.844Z,1004.29
2018-12-07T06:37:07.032Z,1004.28
2018-12-07T06:38:07.001Z,1004.26
2018-12-07T06:39:06.678Z,1004.29
2018-12-07T06:40:07.006Z,1004.22
2018-12-07T06:41:06.447Z,1004.25
2018-12-07T06:42:08.040Z,1004.20
2018-12-07T06:43:06.867Z,1004.23
2018-12-07T06:44:06.460Z,1004.21
2018-12-07T06:45:06.381Z,1004.20
2018-12-07T06:46:06.588Z,1004.21
2018-12-07T06:47:06.513Z,1004.16
2018-12-07T06:49:51.077Z,1004.15
2018-12-07T06:50:50.748Z,1004.15
2018-12-07T06:51:50.338Z,1004.09
2018-12-07T06:52:52.225Z,1004.14
2018-12-07T06:53:51.020Z,1004.17
2018-12-07T06:54:50.455Z,1004.10
2018-12-07T06:55:50.105Z,1004.15
2018-12-07T06:56:50.119Z,1004.15
2018-12-07T06:57:50.403Z,1004.14
2018-12-07T06:58:52.034Z,1004.14
2018-12-07T06:59:50.194Z,1004.12
2018-12-07T07:00:50.068Z,1004.09
2018-12-07T07:01:50.058Z,1004.08
2018-12-07T07:02:51.084Z,1004.05
2018-12-07T07:05:04.091Z,1004.04
2018-12-07T07:06:04.018Z,1003.97
2018-12-07T07:07:03.023Z,1004.02
2018-12-07T07:08:02.947Z,1003.99
2018-12-07T07:09:02.878Z,1004.01
2018-12-07T07:10:03.022Z,1004.04
2018-12-07T07:11:02.973Z,1003.96
2018-12-07T07:12:04.035Z,1003.98
2018-12-07T07:13:03.028Z,1004.09
2018-12-07T07:14:03.068Z,1004.02
2018-12-07T07:15:04.075Z,1004.03
2018-12-07T07:16:03.547Z,1004.00
2018-12-07T07:17:03.066Z,1004.08
2018-12-07T07:18:03.073Z,1004.05
2018-12-07T07:20:39.172Z,1004.02
2018-12-07T07:21:38.902Z,1004.07
2018-12-07T07:22:39.051Z,1004.05
2018-12-07T07:23:39.034Z,1004.05
2018-12-07T07:24:38.922Z,1004.06
2018-12-07T07:25:39.745Z,1004.08
2018-12-07T07:26:39.046Z,1004.04
2018-12-07T07:27:39.074Z,1004.08
2018-12-07T07:28:39.064Z,1004.07
2018-12-07T07:29:39.103Z,1004.10
2018-12-07T07:30:39.015Z,1004.10
2018-12-07T07:31:43.617Z,1004.06
2018-12-07T07:32:38.787Z,1004.07
2018-12-07T07:33:38.985Z,1004.10
2018-12-07T07:35:53.556Z,1004.11
2018-12-07T07:36:53.054Z,1004.06
2018-12-07T07:37:53.069Z,1004.08
2018-12-07T07:38:52.950Z,1004.04
2018-12-07T07:39:53.778Z,1004.05
2018-12-07T07:40:53.223Z,1004.03
2018-12-07T07:41:54.037Z,1004.05
2018-12-07T07:42:52.886Z,1004.02
2018-12-07T07:43:53.069Z,1004.00
2018-12-07T07:44:53.602Z,1003.98
2018-12-07T07:45:52.905Z,1003.94
2018-12-07T07:46:52.807Z,1004.02
2018-12-07T07:47:53.014Z,1003.98
2018-12-07T07:48:53.591Z,1004.02
2018-12-07T07:51:07.488Z,1003.93
2018-12-07T07:52:06.793Z,1003.94
2018-12-07T07:53:06.655Z,1003.95
2018-12-07T07:54:06.588Z,1003.91
2018-12-07T07:55:08.015Z,1003.87
2018-12-07T07:56:06.707Z,1003.84
2018-12-07T07:57:06.892Z,1003.83
2018-12-07T07:58:06.504Z,1003.83
2018-12-07T07:59:06.716Z,1003.78
2018-12-07T08:00:06.615Z,1003.75
2018-12-07T08:01:08.097Z,1003.72
2018-12-07T08:02:07.229Z,1003.78
2018-12-07T08:03:06.950Z,1003.72
2018-12-07T08:04:07.799Z,1003.75
2018-12-07T08:06:32.095Z,1003.71
2018-12-07T08:07:31.321Z,1003.67
2018-12-07T08:08:31.038Z,1003.65
2018-12-07T08:09:31.226Z,1003.60
2018-12-07T08:10:31.121Z,1003.57
2018-12-07T08:11:34.090Z,1003.58
2018-12-07T08:12:31.165Z,1003.55
2018-12-07T08:13:31.246Z,1003.57
2018-12-07T08:14:31.200Z,1003.53
2018-12-07T08:15:31.374Z,1003.50
2018-12-07T08:16:31.432Z,1003.47
2018-12-07T08:17:31.428Z,1003.50
2018-12-07T08:18:31.157Z,1003.54
2018-12-07T08:19:30.939Z,1003.52
2018-12-07T08:22:06.412Z,1003.48
2018-12-07T08:23:06.188Z,1003.46
2018-12-07T08:24:04.941Z,1003.44
2018-12-07T08:25:05.223Z,1003.46
2018-12-07T08:26:05.049Z,1003.41
2018-12-07T08:27:05.056Z,1003.38
2018-12-07T08:28:05.199Z,1003.46
2018-12-07T08:29:06.648Z,1003.44
2018-12-07T08:30:05.006Z,1003.49
2018-12-07T08:31:04.898Z,1003.45
2018-12-07T08:32:05.197Z,1003.43
2018-12-07T08:33:05.026Z,1003.43
2018-12-07T08:34:04.921Z,1003.39
2018-12-07T08:35:06.046Z,1003.35
2018-12-07T08:37:21.297Z,1003.37
2018-12-07T08:38:19.165Z,1003.36
2018-12-07T08:39:19.244Z,1003.36
2018-12-07T08:40:21.190Z,1003.37
2018-12-07T08:41:19.009Z,1003.37
2018-12-07T08:42:18.909Z,1003.33
2018-12-07T08:43:19.255Z,1003.33
2018-12-07T08:44:19.015Z,1003.39
2018-12-07T08:45:18.924Z,1003.37
2018-12-07T08:46:20.696Z,1003.39
2018-12-07T08:47:19.048Z,1003.44
2018-12-07T08:48:18.951Z,1003.35
2018-12-07T08:49:18.860Z,1003.35
2018-12-07T08:50:19.220Z,1003.38
2018-12-07T08:52:33.126Z,1003.36
2018-12-07T08:53:31.247Z,1003.37
2018-12-07T08:54:31.182Z,1003.36
2018-12-07T08:55:31.193Z,1003.31
2018-12-07T08:56:31.163Z,1003.31
2018-12-07T08:57:30.988Z,1003.33
2018-12-07T08:58:32.134Z,1003.30
2018-12-07T08:59:31.168Z,1003.28
2018-12-07T09:00:31.246Z,1003.29
2018-12-07T09:01:30.928Z,1003.30
2018-12-07T09:02:30.824Z,1003.30
2018-12-07T09:03:31.082Z,1003.25
2018-12-07T09:04:31.557Z,1003.30
2018-12-07T09:05:30.924Z,1003.31
2018-12-07T09:07:43.352Z,1003.26
2018-12-07T09:08:42.869Z,1003.23
2018-12-07T09:09:44.171Z,1003.20
2018-12-07T09:10:42.692Z,1003.23
2018-12-07T09:11:42.897Z,1003.24
2018-12-07T09:12:42.785Z,1003.24
2018-12-07T09:13:42.692Z,1003.21
2018-12-07T09:14:42.623Z,1003.21
2018-12-07T09:15:43.173Z,1003.16
2018-12-07T09:16:42.716Z,1003.15
2018-12-07T09:17:42.611Z,1003.14
2018-12-07T09:18:42.517Z,1003.15
2018-12-07T09:19:42.734Z,1003.14
2018-12-07T09:20:43.081Z,1003.11
2018-12-07T09:23:06.206Z,1003.07
2018-12-07T09:24:06.052Z,1003.02
2018-12-07T09:25:05.927Z,1003.00
2018-12-07T09:26:05.810Z,1003.02
2018-12-07T09:27:06.044Z,1003.02
2018-12-07T09:28:05.929Z,1002.94
2018-12-07T09:29:06.437Z,1002.98
2018-12-07T09:30:05.738Z,1002.98
2018-12-07T09:31:05.944Z,1002.96
2018-12-07T09:32:05.888Z,1002.94
2018-12-07T09:33:06.272Z,1002.91
2018-12-07T09:34:05.672Z,1002.95
2018-12-07T09:35:05.974Z,1002.85
2018-12-07T09:36:05.792Z,1002.90
2018-12-07T09:38:41.253Z,1002.87
2018-12-07T09:39:39.908Z,1002.85
2018-12-07T09:40:39.798Z,1002.85
2018-12-07T09:41:39.716Z,1002.83
2018-12-07T09:42:39.613Z,1002.82
2018-12-07T09:43:46.656Z,1002.82
2018-12-07T09:44:40.828Z,1002.78
2018-12-07T09:45:40.863Z,1002.76
2018-12-07T09:46:40.954Z,1002.81
2018-12-07T09:47:40.955Z,1002.75
2018-12-07T09:48:41.545Z,1002.73
2018-12-07T09:49:43.349Z,1002.75
2018-12-07T09:50:40.879Z,1002.71
2018-12-07T09:51:40.907Z,1002.71
2018-12-07T09:54:21.362Z,1002.63
2018-12-07T09:55:19.992Z,1002.61
2018-12-07T09:56:20.878Z,1002.62
2018-12-07T09:57:19.754Z,1002.60
2018-12-07T09:58:20.399Z,1002.60
2018-12-07T09:59:20.894Z,1002.55
2018-12-07T10:00:21.483Z,1002.56
2018-12-07T10:01:19.720Z,1002.59
2018-12-07T10:02:20.864Z,1002.43
2018-12-07T10:03:19.884Z,1002.53
2018-12-07T10:04:19.713Z,1002.49
2018-12-07T10:05:19.951Z,1002.44
2018-12-07T10:06:21.945Z,1002.47
2018-12-07T10:07:19.737Z,1002.47
2018-12-07T10:09:42.278Z,1002.44
2018-12-07T10:10:41.230Z,1002.38
2018-12-07T10:11:41.467Z,1002.42
2018-12-07T10:12:42.906Z,1002.41
2018-12-07T10:13:41.396Z,1002.34
2018-12-07T10:14:41.238Z,1002.32
2018-12-07T10:15:41.347Z,1002.27
2018-12-07T10:16:41.385Z,1002.27
2018-12-07T10:17:42.217Z,1002.21
2018-12-07T10:18:41.432Z,1002.22
2018-12-07T10:19:41.447Z,1002.18
2018-12-07T10:20:41.336Z,1002.20
2018-12-07T10:21:41.396Z,1002.14
2018-12-07T10:24:08.272Z,1002.04
2018-12-07T10:25:05.177Z,1002.01
2018-12-07T10:26:05.032Z,1001.98
2018-12-07T10:27:05.290Z,1001.99
2018-12-07T10:28:05.155Z,1001.93
2018-12-07T10:29:05.256Z,1001.93
2018-12-07T10:30:06.185Z,1001.89
2018-12-07T10:31:05.285Z,1001.87
2018-12-07T10:32:06.001Z,1001.85
2018-12-07T10:33:05.245Z,1001.81
2018-12-07T10:34:05.191Z,1001.75
2018-12-07T10:35:06.024Z,1001.79
2018-12-07T10:36:05.017Z,1001.74
2018-12-07T10:37:05.819Z,1001.75
2018-12-07T10:38:05.190Z,1001.78
2018-12-07T10:40:18.259Z,1001.77
2018-12-07T10:41:18.132Z,1001.71
2018-12-07T10:42:18.250Z,1001.68
2018-12-07T10:43:17.250Z,1001.71
2018-12-07T10:44:17.256Z,1001.69
2018-12-07T10:45:17.047Z,1001.71
2018-12-07T10:46:17.337Z,1001.65
2018-12-07T10:47:17.194Z,1001.64
2018-12-07T10:48:17.290Z,1001.59
2018-12-07T10:49:16.962Z,1001.55
2018-12-07T10:50:17.200Z,1001.55
2018-12-07T10:51:17.197Z,1001.49
2018-12-07T10:52:16.990Z,1001.51
2018-12-07T10:53:17.197Z,1001.49
2018-12-07T10:55:51.414Z,1001.40
2018-12-07T10:56:51.429Z,1001.38
2018-12-07T10:57:51.233Z,1001.41
2018-12-07T10:58:50.822Z,1001.38
2018-12-07T10:59:51.259Z,1001.41
2018-12-07T11:00:50.944Z,1001.34
2018-12-07T11:01:50.843Z,1001.33
2018-12-07T11:02:50.752Z,1001.32
2018-12-07T11:03:51.538Z,1001.31
2018-12-07T11:04:50.870Z,1001.32
2018-12-07T11:05:52.274Z,1001.26
2018-12-07T11:06:51.275Z,1001.27
2018-12-07T11:07:51.064Z,1001.23
2018-12-07T11:10:14.319Z,1001.25
2018-12-07T11:11:12.109Z,1001.16
2018-12-07T11:12:12.272Z,1001.13
2018-12-07T11:13:12.234Z,1001.07
2018-12-07T11:14:12.288Z,1001.13
2018-12-07T11:15:12.034Z,1001.12
2018-12-07T11:16:13.180Z,1001.15
2018-12-07T11:17:12.161Z,1001.05
2018-12-07T11:18:12.084Z,1001.10
2018-12-07T11:19:12.282Z,1001.07
2018-12-07T11:20:12.187Z,1001.02
2018-12-07T11:21:12.091Z,1001.03
2018-12-07T11:22:13.232Z,1000.99
2018-12-07T11:23:12.212Z,1001.01
2018-12-07T11:24:12.113Z,1000.97
2018-12-07T11:26:34.340Z,1000.88
2018-12-07T11:27:34.365Z,1000.90
2018-12-07T11:28:34.146Z,1000.86
2018-12-07T11:29:34.092Z,1000.84
2018-12-07T11:30:34.261Z,1000.81
2018-12-07T11:31:34.187Z,1000.81
2018-12-07T11:32:34.071Z,1000.76
2018-12-07T11:33:34.647Z,1000.75
2018-12-07T11:34:34.207Z,1000.73
2018-12-07T11:35:34.102Z,1000.69
2018-12-07T11:36:34.017Z,1000.71
2018-12-07T11:37:34.314Z,1000.66
2018-12-07T11:38:34.160Z,1000.66
2018-12-07T11:40:47.368Z,1000.64
2018-12-07T11:41:46.126Z,1000.62
2018-12-07T11:42:46.037Z,1000.56
2018-12-07T11:43:46.040Z,1000.59
2018-12-07T11:44:47.529Z,1000.66
2018-12-07T11:45:46.668Z,1000.61
2018-12-07T11:46:46.511Z,1000.58
2018-12-07T11:47:46.343Z,1000.60
2018-12-07T11:48:46.092Z,1000.56
2018-12-07T11:49:45.990Z,1000.60
2018-12-07T11:50:46.315Z,1000.57
2018-12-07T11:51:46.415Z,1000.55
2018-12-07T11:52:46.366Z,1000.50
2018-12-07T11:53:45.919Z,1000.52
2018-12-07T11:54:45.816Z,1000.49
2018-12-07T11:57:09.551Z,1000.41
2018-12-07T11:58:09.856Z,1000.45
2018-12-07T11:59:09.357Z,1000.42
2018-12-07T12:00:09.315Z,1000.39
2018-12-07T12:01:09.201Z,1000.42
2018-12-07T12:02:09.430Z,1000.38
2018-12-07T12:03:10.566Z,1000.41
2018-12-07T12:04:09.445Z,1000.36
2018-12-07T12:05:09.184Z,1000.28
2018-12-07T12:06:09.087Z,1000.34
2018-12-07T12:07:09.489Z,1000.27
2018-12-07T12:08:09.510Z,1000.24
2018-12-07T12:09:10.343Z,1000.24
2018-12-07T12:11:34.714Z,1000.23
2018-12-07T12:12:33.455Z,1000.25
2018-12-07T12:13:33.664Z,1000.22
2018-12-07T12:14:35.468Z,1000.21
2018-12-07T12:15:33.356Z,1000.19
2018-12-07T12:16:33.780Z,1000.13
2018-12-07T12:17:34.619Z,1000.13
2018-12-07T12:18:33.348Z,1000.21
2018-12-07T12:19:33.339Z,1000.09
2018-12-07T12:20:34.011Z,1000.10
2018-12-07T12:21:33.413Z,1000.11
2018-12-07T12:22:33.351Z,1000.12
2018-12-07T12:23:33.244Z,1000.19
2018-12-07T12:24:33.159Z,1000.03
2018-12-07T12:25:34.399Z,1000.13
2018-12-07T12:27:47.387Z,1000.02
2018-12-07T12:28:45.642Z,1000.01
2018-12-07T12:29:45.861Z,1000.00
2018-12-07T12:30:45.770Z,1000.07
2018-12-07T12:31:45.686Z,1000.00
2018-12-07T12:32:45.927Z,999.95
2018-12-07T12:33:45.193Z,999.96
2018-12-07T12:34:45.478Z,999.96
2018-12-07T12:35:45.913Z,999.93
2018-12-07T12:36:45.397Z,999.93
2018-12-07T12:37:45.172Z,999.87
2018-12-07T12:38:45.371Z,999.79
2018-12-07T12:39:45.232Z,999.79
2018-12-07T12:40:45.188Z,999.81
2018-12-07T12:42:58.438Z,999.80
2018-12-07T12:43:58.364Z,999.73
2018-12-07T12:44:58.291Z,999.72
2018-12-07T12:45:58.177Z,999.68
2018-12-07T12:46:58.379Z,999.69
2018-12-07T12:47:58.370Z,999.70
2018-12-07T12:48:58.188Z,999.69
2018-12-07T12:49:58.389Z,999.67
2018-12-07T12:50:58.414Z,999.69
2018-12-07T12:51:58.229Z,999.66
2018-12-07T12:52:58.866Z,999.67
2018-12-07T12:53:59.384Z,999.62
2018-12-07T12:54:58.247Z,999.65
2018-12-07T12:55:58.553Z,999.62
2018-12-07T12:58:10.449Z,999.63
2018-12-07T12:59:09.231Z,999.57
2018-12-07T13:00:09.381Z,999.60
2018-12-07T13:01:09.345Z,999.60
2018-12-07T13:02:09.258Z,999.57
2018-12-07T13:03:09.394Z,999.52
2018-12-07T13:04:10.316Z,999.52
2018-12-07T13:05:09.407Z,999.49
2018-12-07T13:06:09.389Z,999.53
2018-12-07T13:07:09.455Z,999.48
2018-12-07T13:08:09.293Z,999.45
2018-12-07T13:09:09.504Z,999.48
2018-12-07T13:10:10.351Z,999.39
2018-12-07T13:11:09.552Z,999.42
2018-12-07T13:13:31.437Z,999.32
2018-12-07T13:14:32.437Z,999.34
2018-12-07T13:15:33.455Z,999.29
2018-12-07T13:16:30.647Z,999.31